sensor_id;sensor_type;location;lat;lon;timestamp;temperature;humidity
44063;DHT22;29727;47.606;19.130;2023-07-29T00:01:58;23.10;84.70
44063;DHT22;29727;47.606;19.130;2023-07-29T00:04:24;23.10;84.70
44063;DHT22;29727;47.606;19.130;2023-07-29T00:06:50;23.00;84.10
44063;DHT22;29727;47.606;19.130;2023-07-29T00:09:15;23.00;84.40
44063;DHT22;29727;47.606;19.130;2023-07-29T00:11:41;23.00;84.80
44063;DHT22;29727;47.606;19.130;2023-07-29T00:14:06;23.00;85.00
44063;DHT22;29727;47.606;19.130;2023-07-29T00:16:32;22.90;85.00
44063;DHT22;29727;47.606;19.130;2023-07-29T00:18:58;22.90;84.40
44063;DHT22;29727;47.606;19.130;2023-07-29T00:21:23;22.90;84.40
44063;DHT22;29727;47.606;19.130;2023-07-29T00:23:49;22.90;84.90
44063;DHT22;29727;47.606;19.130;2023-07-29T00:26:15;22.90;85.40
44063;DHT22;29727;47.606;19.130;2023-07-29T00:28:41;22.90;84.70
44063;DHT22;29727;47.606;19.130;2023-07-29T00:31:06;22.90;84.70
44063;DHT22;29727;47.606;19.130;2023-07-29T00:33:32;22.90;84.70
44063;DHT22;29727;47.606;19.130;2023-07-29T00:35:58;22.80;84.60
44063;DHT22;29727;47.606;19.130;2023-07-29T00:38:27;22.80;84.60
44063;DHT22;29727;47.606;19.130;2023-07-29T00:40:52;22.80;84.50
44063;DHT22;29727;47.606;19.130;2023-07-29T00:43:18;22.80;84.00
44063;DHT22;29727;47.606;19.130;2023-07-29T00:45:44;22.80;84.50
44063;DHT22;29727;47.606;19.130;2023-07-29T00:48:10;22.70;84.40
44063;DHT22;29727;47.606;19.130;2023-07-29T00:50:36;22.70;84.40
44063;DHT22;29727;47.606;19.130;2023-07-29T00:53:02;22.70;83.70
44063;DHT22;29727;47.606;19.130;2023-07-29T00:55:29;22.70;84.30
44063;DHT22;29727;47.606;19.130;2023-07-29T00:57:55;22.60;84.20
44063;DHT22;29727;47.606;19.130;2023-07-29T01:00:22;22.60;84.20
44063;DHT22;29727;47.606;19.130;2023-07-29T01:02:47;22.60;84.10
44063;DHT22;29727;47.606;19.130;2023-07-29T01:05:15;22.60;84.00
44063;DHT22;29727;47.606;19.130;2023-07-29T01:07:49;22.60;83.90
44063;DHT22;29727;47.606;19.130;2023-07-29T01:13:13;22.50;83.90
44063;DHT22;29727;47.606;19.130;2023-07-29T01:15:43;22.40;83.10
44063;DHT22;29727;47.606;19.130;2023-07-29T01:18:26;22.50;83.80
44063;DHT22;29727;47.606;19.130;2023-07-29T01:20:54;22.40;83.60
44063;DHT22;29727;47.606;19.130;2023-07-29T01:23:34;22.40;83.60
44063;DHT22;29727;47.606;19.130;2023-07-29T01:26:00;22.40;83.70
44063;DHT22;29727;47.606;19.130;2023-07-29T01:28:26;22.30;83.60
44063;DHT22;29727;47.606;19.130;2023-07-29T01:31:03;22.30;83.70
44063;DHT22;29727;47.606;19.130;2023-07-29T01:33:40;22.30;83.60
44063;DHT22;29727;47.606;19.130;2023-07-29T01:36:15;22.30;83.60
44063;DHT22;29727;47.606;19.130;2023-07-29T01:38:44;22.20;83.60
44063;DHT22;29727;47.606;19.130;2023-07-29T01:41:11;22.20;83.60
44063;DHT22;29727;47.606;19.130;2023-07-29T01:43:37;22.20;83.80
44063;DHT22;29727;47.606;19.130;2023-07-29T01:46:09;22.20;83.70
44063;DHT22;29727;47.606;19.130;2023-07-29T01:48:36;22.20;83.80
44063;DHT22;29727;47.606;19.130;2023-07-29T01:51:01;22.10;83.80
44063;DHT22;29727;47.606;19.130;2023-07-29T01:53:27;22.10;83.80
44063;DHT22;29727;47.606;19.130;2023-07-29T01:55:52;22.10;83.90
44063;DHT22;29727;47.606;19.130;2023-07-29T01:58:18;22.10;83.90
44063;DHT22;29727;47.606;19.130;2023-07-29T02:00:44;22.10;83.90
44063;DHT22;29727;47.606;19.130;2023-07-29T02:03:09;22.10;83.90
44063;DHT22;29727;47.606;19.130;2023-07-29T02:05:35;22.00;83.90
44063;DHT22;29727;47.606;19.130;2023-07-29T02:08:01;22.00;83.60
44063;DHT22;29727;47.606;19.130;2023-07-29T02:10:26;22.00;82.70
44063;DHT22;29727;47.606;19.130;2023-07-29T02:12:52;22.00;83.40
44063;DHT22;29727;47.606;19.130;2023-07-29T02:15:17;22.00;83.40
44063;DHT22;29727;47.606;19.130;2023-07-29T02:17:45;21.90;83.50
44063;DHT22;29727;47.606;19.130;2023-07-29T02:20:11;21.90;83.70
44063;DHT22;29727;47.606;19.130;2023-07-29T02:22:37;21.90;84.60
44063;DHT22;29727;47.606;19.130;2023-07-29T02:25:04;21.80;84.40
44063;DHT22;29727;47.606;19.130;2023-07-29T02:27:29;21.80;84.40
44063;DHT22;29727;47.606;19.130;2023-07-29T02:29:55;21.80;84.70
44063;DHT22;29727;47.606;19.130;2023-07-29T02:32:21;21.70;84.70
44063;DHT22;29727;47.606;19.130;2023-07-29T02:34:47;21.70;84.90
44063;DHT22;29727;47.606;19.130;2023-07-29T02:37:12;21.70;84.90
44063;DHT22;29727;47.606;19.130;2023-07-29T02:39:38;21.60;84.80
44063;DHT22;29727;47.606;19.130;2023-07-29T02:42:04;21.60;84.80
44063;DHT22;29727;47.606;19.130;2023-07-29T02:44:30;21.60;84.70
44063;DHT22;29727;47.606;19.130;2023-07-29T02:46:55;21.60;84.60
44063;DHT22;29727;47.606;19.130;2023-07-29T02:49:22;21.60;84.60
44063;DHT22;29727;47.606;19.130;2023-07-29T02:51:48;21.60;84.50
44063;DHT22;29727;47.606;19.130;2023-07-29T02:54:14;21.60;84.50
44063;DHT22;29727;47.606;19.130;2023-07-29T02:56:39;21.60;84.30
44063;DHT22;29727;47.606;19.130;2023-07-29T02:59:05;21.60;84.30
44063;DHT22;29727;47.606;19.130;2023-07-29T03:01:31;21.10;83.40
44063;DHT22;29727;47.606;19.130;2023-07-29T03:03:56;21.50;83.30
44063;DHT22;29727;47.606;19.130;2023-07-29T03:06:22;21.50;83.90
44063;DHT22;29727;47.606;19.130;2023-07-29T03:08:48;21.50;83.70
44063;DHT22;29727;47.606;19.130;2023-07-29T03:11:15;21.50;83.50
44063;DHT22;29727;47.606;19.130;2023-07-29T03:13:41;21.50;83.70
44063;DHT22;29727;47.606;19.130;2023-07-29T03:16:12;21.40;83.00
44063;DHT22;29727;47.606;19.130;2023-07-29T03:18:38;21.40;83.60
44063;DHT22;29727;47.606;19.130;2023-07-29T03:21:04;21.40;83.50
44063;DHT22;29727;47.606;19.130;2023-07-29T03:23:31;21.40;83.50
44063;DHT22;29727;47.606;19.130;2023-07-29T03:25:58;21.40;83.10
44063;DHT22;29727;47.606;19.130;2023-07-29T03:28:29;21.40;83.60
44063;DHT22;29727;47.606;19.130;2023-07-29T03:30:55;21.30;83.70
44063;DHT22;29727;47.606;19.130;2023-07-29T03:33:22;21.30;83.90
44063;DHT22;29727;47.606;19.130;2023-07-29T03:35:48;21.30;84.10
44063;DHT22;29727;47.606;19.130;2023-07-29T03:38:16;21.30;84.20
44063;DHT22;29727;47.606;19.130;2023-07-29T03:40:42;21.30;84.40
44063;DHT22;29727;47.606;19.130;2023-07-29T03:43:08;21.30;84.50
44063;DHT22;29727;47.606;19.130;2023-07-29T03:45:34;21.30;84.60
44063;DHT22;29727;47.606;19.130;2023-07-29T03:48:00;21.30;84.60
44063;DHT22;29727;47.606;19.130;2023-07-29T03:50:26;21.20;84.70
44063;DHT22;29727;47.606;19.130;2023-07-29T03:52:52;21.20;84.70
44063;DHT22;29727;47.606;19.130;2023-07-29T03:55:18;21.20;84.70
44063;DHT22;29727;47.606;19.130;2023-07-29T03:57:44;21.20;84.30
44063;DHT22;29727;47.606;19.130;2023-07-29T04:00:10;21.20;84.90
44063;DHT22;29727;47.606;19.130;2023-07-29T04:02:36;21.20;84.30
44063;DHT22;29727;47.606;19.130;2023-07-29T04:05:05;21.20;84.90
44063;DHT22;29727;47.606;19.130;2023-07-29T04:07:37;21.20;84.90
44063;DHT22;29727;47.606;19.130;2023-07-29T04:10:03;21.20;84.90
44063;DHT22;29727;47.606;19.130;2023-07-29T04:12:29;21.20;85.00
44063;DHT22;29727;47.606;19.130;2023-07-29T04:14:54;21.20;84.90
44063;DHT22;29727;47.606;19.130;2023-07-29T04:17:20;21.20;85.10
44063;DHT22;29727;47.606;19.130;2023-07-29T04:19:45;21.20;85.20
44063;DHT22;29727;47.606;19.130;2023-07-29T04:22:11;21.20;85.20
44063;DHT22;29727;47.606;19.130;2023-07-29T04:24:37;21.20;85.30
44063;DHT22;29727;47.606;19.130;2023-07-29T04:27:04;21.20;85.30
44063;DHT22;29727;47.606;19.130;2023-07-29T04:29:29;21.30;85.20
44063;DHT22;29727;47.606;19.130;2023-07-29T04:31:55;21.30;85.40
44063;DHT22;29727;47.606;19.130;2023-07-29T04:34:21;21.30;85.70
44063;DHT22;29727;47.606;19.130;2023-07-29T04:36:47;21.30;86.20
44063;DHT22;29727;47.606;19.130;2023-07-29T04:39:13;21.20;86.70
44063;DHT22;29727;47.606;19.130;2023-07-29T04:41:39;21.40;87.00
44063;DHT22;29727;47.606;19.130;2023-07-29T04:44:05;21.40;87.10
44063;DHT22;29727;47.606;19.130;2023-07-29T04:46:30;21.50;87.40
44063;DHT22;29727;47.606;19.130;2023-07-29T04:48:56;21.50;87.70
44063;DHT22;29727;47.606;19.130;2023-07-29T04:51:22;21.50;87.20
44063;DHT22;29727;47.606;19.130;2023-07-29T04:53:48;21.50;88.10
44063;DHT22;29727;47.606;19.130;2023-07-29T04:56:14;21.50;87.70
44063;DHT22;29727;47.606;19.130;2023-07-29T04:58:39;21.60;88.40
44063;DHT22;29727;47.606;19.130;2023-07-29T05:01:06;21.60;87.70
44063;DHT22;29727;47.606;19.130;2023-07-29T05:03:31;21.60;87.70
44063;DHT22;29727;47.606;19.130;2023-07-29T05:05:58;21.60;87.70
44063;DHT22;29727;47.606;19.130;2023-07-29T05:08:27;21.60;87.80
44063;DHT22;29727;47.606;19.130;2023-07-29T05:10:53;21.70;87.70
44063;DHT22;29727;47.606;19.130;2023-07-29T05:13:19;21.70;87.60
44063;DHT22;29727;47.606;19.130;2023-07-29T05:15:46;21.70;87.50
44063;DHT22;29727;47.606;19.130;2023-07-29T05:18:12;21.80;87.40
44063;DHT22;29727;47.606;19.130;2023-07-29T05:20:38;21.80;87.30
44063;DHT22;29727;47.606;19.130;2023-07-29T05:23:05;21.80;87.20
44063;DHT22;29727;47.606;19.130;2023-07-29T05:25:30;21.90;87.20
44063;DHT22;29727;47.606;19.130;2023-07-29T05:27:56;21.90;87.30
44063;DHT22;29727;47.606;19.130;2023-07-29T05:30:23;22.00;87.50
44063;DHT22;29727;47.606;19.130;2023-07-29T05:32:48;22.00;87.60
44063;DHT22;29727;47.606;19.130;2023-07-29T05:35:14;22.10;87.60
44063;DHT22;29727;47.606;19.130;2023-07-29T05:37:40;22.20;87.00
44063;DHT22;29727;47.606;19.130;2023-07-29T05:40:07;22.20;86.70
44063;DHT22;29727;47.606;19.130;2023-07-29T05:42:34;22.30;86.80
44063;DHT22;29727;47.606;19.130;2023-07-29T05:45:00;22.30;87.30
44063;DHT22;29727;47.606;19.130;2023-07-29T05:47:26;22.40;87.10
44063;DHT22;29727;47.606;19.130;2023-07-29T05:49:52;22.40;86.90
44063;DHT22;29727;47.606;19.130;2023-07-29T05:52:17;22.50;87.10
44063;DHT22;29727;47.606;19.130;2023-07-29T05:54:43;22.60;86.50
44063;DHT22;29727;47.606;19.130;2023-07-29T05:57:09;22.60;86.40
44063;DHT22;29727;47.606;19.130;2023-07-29T05:59:35;22.70;86.60
44063;DHT22;29727;47.606;19.130;2023-07-29T06:02:01;22.80;86.60
44063;DHT22;29727;47.606;19.130;2023-07-29T06:04:27;22.80;85.60
44063;DHT22;29727;47.606;19.130;2023-07-29T06:06:52;22.90;85.10
44063;DHT22;29727;47.606;19.130;2023-07-29T06:09:18;23.00;83.90
44063;DHT22;29727;47.606;19.130;2023-07-29T06:11:44;23.00;83.60
44063;DHT22;29727;47.606;19.130;2023-07-29T06:14:09;23.10;83.70
44063;DHT22;29727;47.606;19.130;2023-07-29T06:16:35;23.10;83.70
44063;DHT22;29727;47.606;19.130;2023-07-29T06:19:01;23.20;83.90
44063;DHT22;29727;47.606;19.130;2023-07-29T06:21:26;23.30;83.80
44063;DHT22;29727;47.606;19.130;2023-07-29T06:23:52;23.30;83.60
44063;DHT22;29727;47.606;19.130;2023-07-29T06:26:18;23.40;83.00
44063;DHT22;29727;47.606;19.130;2023-07-29T06:28:44;23.40;83.00
44063;DHT22;29727;47.606;19.130;2023-07-29T06:31:09;23.50;82.60
44063;DHT22;29727;47.606;19.130;2023-07-29T06:33:35;23.50;81.90
44063;DHT22;29727;47.606;19.130;2023-07-29T06:36:01;23.60;81.80
44063;DHT22;29727;47.606;19.130;2023-07-29T06:38:27;23.70;80.60
44063;DHT22;29727;47.606;19.130;2023-07-29T06:40:52;23.70;81.10
44063;DHT22;29727;47.606;19.130;2023-07-29T06:43:18;23.70;80.70
44063;DHT22;29727;47.606;19.130;2023-07-29T06:45:44;23.80;78.20
44063;DHT22;29727;47.606;19.130;2023-07-29T06:48:09;23.90;78.60
44063;DHT22;29727;47.606;19.130;2023-07-29T06:50:35;24.00;78.70
44063;DHT22;29727;47.606;19.130;2023-07-29T06:53:00;24.00;78.90
44063;DHT22;29727;47.606;19.130;2023-07-29T06:55:26;24.10;78.90
44063;DHT22;29727;47.606;19.130;2023-07-29T06:57:52;24.10;76.70
44063;DHT22;29727;47.606;19.130;2023-07-29T07:00:21;24.10;77.60
44063;DHT22;29727;47.606;19.130;2023-07-29T07:02:46;24.20;78.30
44063;DHT22;29727;47.606;19.130;2023-07-29T07:05:12;24.30;77.70
44063;DHT22;29727;47.606;19.130;2023-07-29T07:07:39;24.40;76.50
44063;DHT22;29727;47.606;19.130;2023-07-29T07:10:05;24.40;77.10
44063;DHT22;29727;47.606;19.130;2023-07-29T07:12:31;24.40;75.90
44063;DHT22;29727;47.606;19.130;2023-07-29T07:14:56;24.50;77.10
44063;DHT22;29727;47.606;19.130;2023-07-29T07:17:22;24.50;78.30
44063;DHT22;29727;47.606;19.130;2023-07-29T07:19:47;24.60;78.30
44063;DHT22;29727;47.606;19.130;2023-07-29T07:22:13;24.70;78.70
44063;DHT22;29727;47.606;19.130;2023-07-29T07:24:39;24.70;77.60
44063;DHT22;29727;47.606;19.130;2023-07-29T07:27:05;24.90;75.30
44063;DHT22;29727;47.606;19.130;2023-07-29T07:29:30;25.00;76.50
44063;DHT22;29727;47.606;19.130;2023-07-29T07:31:56;25.10;75.00
44063;DHT22;29727;47.606;19.130;2023-07-29T07:34:22;25.10;75.20
44063;DHT22;29727;47.606;19.130;2023-07-29T07:36:48;25.20;75.40
44063;DHT22;29727;47.606;19.130;2023-07-29T07:39:14;25.30;74.70
44063;DHT22;29727;47.606;19.130;2023-07-29T07:41:41;25.40;75.10
44063;DHT22;29727;47.606;19.130;2023-07-29T07:44:07;25.40;75.00
44063;DHT22;29727;47.606;19.130;2023-07-29T07:46:32;25.50;72.40
44063;DHT22;29727;47.606;19.130;2023-07-29T07:48:58;25.70;72.60
44063;DHT22;29727;47.606;19.130;2023-07-29T07:51:24;25.80;70.80
44063;DHT22;29727;47.606;19.130;2023-07-29T07:53:50;25.90;70.70
44063;DHT22;29727;47.606;19.130;2023-07-29T07:56:15;26.00;71.30
44063;DHT22;29727;47.606;19.130;2023-07-29T07:58:41;26.00;70.20
44063;DHT22;29727;47.606;19.130;2023-07-29T08:01:08;26.10;69.70
44063;DHT22;29727;47.606;19.130;2023-07-29T08:03:35;26.20;70.00
44063;DHT22;29727;47.606;19.130;2023-07-29T08:06:01;26.20;69.20
44063;DHT22;29727;47.606;19.130;2023-07-29T08:08:28;26.20;69.80
44063;DHT22;29727;47.606;19.130;2023-07-29T08:10:55;26.30;68.80
44063;DHT22;29727;47.606;19.130;2023-07-29T08:13:22;26.40;68.80
44063;DHT22;29727;47.606;19.130;2023-07-29T08:15:49;26.40;69.10
44063;DHT22;29727;47.606;19.130;2023-07-29T08:18:15;30.10;70.70
44063;DHT22;29727;47.606;19.130;2023-07-29T08:20:41;26.60;68.50
44063;DHT22;29727;47.606;19.130;2023-07-29T08:23:07;26.70;68.00
44063;DHT22;29727;47.606;19.130;2023-07-29T08:25:33;26.90;64.30
44063;DHT22;29727;47.606;19.130;2023-07-29T08:27:58;27.00;64.40
44063;DHT22;29727;47.606;19.130;2023-07-29T08:30:24;27.00;65.00
44063;DHT22;29727;47.606;19.130;2023-07-29T08:32:50;27.10;65.90
44063;DHT22;29727;47.606;19.130;2023-07-29T08:35:15;27.20;63.80
44063;DHT22;29727;47.606;19.130;2023-07-29T08:37:41;27.30;64.20
44063;DHT22;29727;47.606;19.130;2023-07-29T08:40:07;27.40;64.80
44063;DHT22;29727;47.606;19.130;2023-07-29T08:42:34;27.50;62.40
44063;DHT22;29727;47.606;19.130;2023-07-29T08:45:07;26.00;60.00
44063;DHT22;29727;47.606;19.130;2023-07-29T08:47:38;27.90;62.10
44063;DHT22;29727;47.606;19.130;2023-07-29T08:50:04;27.80;60.30
44063;DHT22;29727;47.606;19.130;2023-07-29T08:52:30;27.90;61.20
44063;DHT22;29727;47.606;19.130;2023-07-29T08:54:58;28.00;61.40
44063;DHT22;29727;47.606;19.130;2023-07-29T08:57:24;28.10;57.70
44063;DHT22;29727;47.606;19.130;2023-07-29T08:59:51;28.20;56.90
44063;DHT22;29727;47.606;19.130;2023-07-29T09:02:18;28.20;57.20
44063;DHT22;29727;47.606;19.130;2023-07-29T09:04:43;28.30;57.80
44063;DHT22;29727;47.606;19.130;2023-07-29T09:07:10;28.40;57.40
44063;DHT22;29727;47.606;19.130;2023-07-29T09:09:35;28.50;57.90
44063;DHT22;29727;47.606;19.130;2023-07-29T09:12:01;28.60;57.10
44063;DHT22;29727;47.606;19.130;2023-07-29T09:14:27;28.70;56.20
44063;DHT22;29727;47.606;19.130;2023-07-29T09:16:53;28.80;56.80
44063;DHT22;29727;47.606;19.130;2023-07-29T09:19:19;28.80;54.20
44063;DHT22;29727;47.606;19.130;2023-07-29T09:21:46;28.80;56.10
44063;DHT22;29727;47.606;19.130;2023-07-29T09:24:16;28.90;55.80
44063;DHT22;29727;47.606;19.130;2023-07-29T09:26:49;29.00;56.10
44063;DHT22;29727;47.606;19.130;2023-07-29T09:29:16;29.00;54.90
44063;DHT22;29727;47.606;19.130;2023-07-29T09:31:41;29.10;56.00
44063;DHT22;29727;47.606;19.130;2023-07-29T09:34:07;29.10;57.40
44063;DHT22;29727;47.606;19.130;2023-07-29T09:36:34;29.10;57.50
44063;DHT22;29727;47.606;19.130;2023-07-29T09:39:01;29.10;54.60
44063;DHT22;29727;47.606;19.130;2023-07-29T09:41:28;29.00;55.10
44063;DHT22;29727;47.606;19.130;2023-07-29T09:43:56;29.00;54.10
44063;DHT22;29727;47.606;19.130;2023-07-29T09:46:24;29.00;55.60
44063;DHT22;29727;47.606;19.130;2023-07-29T09:48:55;29.00;55.30
44063;DHT22;29727;47.606;19.130;2023-07-29T09:51:22;29.10;55.80
44063;DHT22;29727;47.606;19.130;2023-07-29T09:53:49;29.20;54.10
44063;DHT22;29727;47.606;19.130;2023-07-29T09:56:15;29.20;54.70
44063;DHT22;29727;47.606;19.130;2023-07-29T09:58:46;29.30;54.80
44063;DHT22;29727;47.606;19.130;2023-07-29T10:01:13;29.40;54.60
44063;DHT22;29727;47.606;19.130;2023-07-29T10:03:40;29.50;55.10
44063;DHT22;29727;47.606;19.130;2023-07-29T10:06:06;29.70;56.20
44063;DHT22;29727;47.606;19.130;2023-07-29T10:08:33;29.90;55.30
44063;DHT22;29727;47.606;19.130;2023-07-29T10:11:05;30.10;52.90
44063;DHT22;29727;47.606;19.130;2023-07-29T10:13:32;30.20;52.40
44063;DHT22;29727;47.606;19.130;2023-07-29T10:15:59;30.40;50.30
44063;DHT22;29727;47.606;19.130;2023-07-29T10:18:28;30.40;49.90
44063;DHT22;29727;47.606;19.130;2023-07-29T10:20:57;30.50;49.20
44063;DHT22;29727;47.606;19.130;2023-07-29T10:23:25;30.50;53.60
44063;DHT22;29727;47.606;19.130;2023-07-29T10:26:05;30.50;53.10
44063;DHT22;29727;47.606;19.130;2023-07-29T10:28:32;30.70;53.20
44063;DHT22;29727;47.606;19.130;2023-07-29T10:31:00;30.80;50.10
44063;DHT22;29727;47.606;19.130;2023-07-29T10:33:26;30.90;49.50
44063;DHT22;29727;47.606;19.130;2023-07-29T10:35:53;31.00;49.90
44063;DHT22;29727;47.606;19.130;2023-07-29T10:38:21;31.10;48.40
44063;DHT22;29727;47.606;19.130;2023-07-29T10:40:52;31.00;48.80
44063;DHT22;29727;47.606;19.130;2023-07-29T10:43:31;30.90;50.60
44063;DHT22;29727;47.606;19.130;2023-07-29T10:45:58;30.90;48.30
44063;DHT22;29727;47.606;19.130;2023-07-29T10:48:42;30.80;49.10
44063;DHT22;29727;47.606;19.130;2023-07-29T10:51:36;30.80;49.90
44063;DHT22;29727;47.606;19.130;2023-07-29T10:54:04;31.80;51.00
44063;DHT22;29727;47.606;19.130;2023-07-29T10:56:36;30.50;50.00
44063;DHT22;29727;47.606;19.130;2023-07-29T11:01:39;30.40;49.40
44063;DHT22;29727;47.606;19.130;2023-07-29T11:07:21;30.30;49.70
44063;DHT22;29727;47.606;19.130;2023-07-29T11:09:53;30.30;50.60
44063;DHT22;29727;47.606;19.130;2023-07-29T11:12:39;30.30;52.10
44063;DHT22;29727;47.606;19.130;2023-07-29T11:15:16;30.30;51.70
44063;DHT22;29727;47.606;19.130;2023-07-29T11:20:13;30.50;50.30
44063;DHT22;29727;47.606;19.130;2023-07-29T11:22:39;30.60;50.10
44063;DHT22;29727;47.606;19.130;2023-07-29T11:25:08;30.70;49.60
44063;DHT22;29727;47.606;19.130;2023-07-29T11:27:35;30.80;50.50
44063;DHT22;29727;47.606;19.130;2023-07-29T11:30:03;30.90;50.00
44063;DHT22;29727;47.606;19.130;2023-07-29T11:32:31;31.00;49.50
44063;DHT22;29727;47.606;19.130;2023-07-29T11:35:11;31.10;49.70
44063;DHT22;29727;47.606;19.130;2023-07-29T11:37:38;31.20;49.80
44063;DHT22;29727;47.606;19.130;2023-07-29T11:40:05;31.40;47.40
44063;DHT22;29727;47.606;19.130;2023-07-29T11:42:33;31.60;48.00
44063;DHT22;29727;47.606;19.130;2023-07-29T11:45:02;31.60;49.50
44063;DHT22;29727;47.606;19.130;2023-07-29T11:47:29;31.80;47.50
44063;DHT22;29727;47.606;19.130;2023-07-29T11:49:58;31.90;46.70
44063;DHT22;29727;47.606;19.130;2023-07-29T11:52:26;31.90;47.50
44063;DHT22;29727;47.606;19.130;2023-07-29T11:54:52;31.90;47.90
44063;DHT22;29727;47.606;19.130;2023-07-29T11:57:18;32.00;48.30
44063;DHT22;29727;47.606;19.130;2023-07-29T11:59:45;32.10;47.00
44063;DHT22;29727;47.606;19.130;2023-07-29T12:02:13;32.20;47.80
44063;DHT22;29727;47.606;19.130;2023-07-29T12:04:40;32.30;50.20
44063;DHT22;29727;47.606;19.130;2023-07-29T12:07:07;32.50;48.50
44063;DHT22;29727;47.606;19.130;2023-07-29T12:09:34;32.70;49.20
44063;DHT22;29727;47.606;19.130;2023-07-29T12:12:01;32.90;48.80
44063;DHT22;29727;47.606;19.130;2023-07-29T12:14:30;33.00;47.60
44063;DHT22;29727;47.606;19.130;2023-07-29T12:16:55;33.20;46.30
44063;DHT22;29727;47.606;19.130;2023-07-29T12:19:21;33.30;47.20
44063;DHT22;29727;47.606;19.130;2023-07-29T12:21:50;33.40;46.80
44063;DHT22;29727;47.606;19.130;2023-07-29T12:24:16;33.50;45.70
44063;DHT22;29727;47.606;19.130;2023-07-29T12:26:42;33.50;46.30
44063;DHT22;29727;47.606;19.130;2023-07-29T12:29:15;33.50;45.80
44063;DHT22;29727;47.606;19.130;2023-07-29T12:31:41;33.60;45.40
44063;DHT22;29727;47.606;19.130;2023-07-29T12:34:07;33.60;46.80
44063;DHT22;29727;47.606;19.130;2023-07-29T12:36:47;33.60;47.00
44063;DHT22;29727;47.606;19.130;2023-07-29T12:39:20;33.70;46.20
44063;DHT22;29727;47.606;19.130;2023-07-29T12:41:46;32.90;43.90
44063;DHT22;29727;47.606;19.130;2023-07-29T12:44:12;33.60;45.90
44063;DHT22;29727;47.606;19.130;2023-07-29T12:46:38;33.60;46.80
44063;DHT22;29727;47.606;19.130;2023-07-29T12:49:04;33.70;43.50
44063;DHT22;29727;47.606;19.130;2023-07-29T12:51:30;33.70;43.60
44063;DHT22;29727;47.606;19.130;2023-07-29T12:53:55;33.40;43.50
44063;DHT22;29727;47.606;19.130;2023-07-29T12:56:21;33.30;44.80
44063;DHT22;29727;47.606;19.130;2023-07-29T12:58:47;33.30;46.10
44063;DHT22;29727;47.606;19.130;2023-07-29T13:01:14;33.20;45.70
44063;DHT22;29727;47.606;19.130;2023-07-29T13:03:47;33.30;46.00
44063;DHT22;29727;47.606;19.130;2023-07-29T13:06:13;33.30;44.00
44063;DHT22;29727;47.606;19.130;2023-07-29T13:08:39;33.30;46.60
44063;DHT22;29727;47.606;19.130;2023-07-29T13:11:04;33.30;46.50
44063;DHT22;29727;47.606;19.130;2023-07-29T13:13:31;33.30;45.20
44063;DHT22;29727;47.606;19.130;2023-07-29T13:15:57;33.30;44.50
44063;DHT22;29727;47.606;19.130;2023-07-29T13:18:23;33.30;44.40
44063;DHT22;29727;47.606;19.130;2023-07-29T13:20:48;33.30;46.00
44063;DHT22;29727;47.606;19.130;2023-07-29T13:23:15;33.40;47.20
44063;DHT22;29727;47.606;19.130;2023-07-29T13:25:41;33.40;44.70
44063;DHT22;29727;47.606;19.130;2023-07-29T13:28:07;33.50;46.40
44063;DHT22;29727;47.606;19.130;2023-07-29T13:30:33;33.50;44.80
44063;DHT22;29727;47.606;19.130;2023-07-29T13:32:58;33.50;44.60
44063;DHT22;29727;47.606;19.130;2023-07-29T13:35:24;33.30;45.40
44063;DHT22;29727;47.606;19.130;2023-07-29T13:37:50;33.20;46.40
44063;DHT22;29727;47.606;19.130;2023-07-29T13:40:16;33.10;46.30
44063;DHT22;29727;47.606;19.130;2023-07-29T13:42:42;33.00;46.50
44063;DHT22;29727;47.606;19.130;2023-07-29T13:45:08;32.80;44.30
44063;DHT22;29727;47.606;19.130;2023-07-29T13:47:34;32.90;44.90
44063;DHT22;29727;47.606;19.130;2023-07-29T13:50:00;32.70;44.70
44063;DHT22;29727;47.606;19.130;2023-07-29T13:52:26;32.50;45.00
44063;DHT22;29727;47.606;19.130;2023-07-29T13:54:51;32.50;45.80
44063;DHT22;29727;47.606;19.130;2023-07-29T13:57:18;32.40;44.80
44063;DHT22;29727;47.606;19.130;2023-07-29T13:59:43;32.50;43.90
44063;DHT22;29727;47.606;19.130;2023-07-29T14:02:09;32.50;43.80
44063;DHT22;29727;47.606;19.130;2023-07-29T14:04:35;32.50;43.30
44063;DHT22;29727;47.606;19.130;2023-07-29T14:07:00;32.50;43.70
44063;DHT22;29727;47.606;19.130;2023-07-29T14:09:27;32.50;42.50
44063;DHT22;29727;47.606;19.130;2023-07-29T14:11:54;32.40;42.60
44063;DHT22;29727;47.606;19.130;2023-07-29T14:14:20;32.40;43.80
44063;DHT22;29727;47.606;19.130;2023-07-29T14:16:46;32.30;43.80
44063;DHT22;29727;47.606;19.130;2023-07-29T14:19:12;32.20;44.00
44063;DHT22;29727;47.606;19.130;2023-07-29T14:21:38;32.30;45.50
44063;DHT22;29727;47.606;19.130;2023-07-29T14:24:04;32.30;44.30
44063;DHT22;29727;47.606;19.130;2023-07-29T14:26:29;32.30;44.00
44063;DHT22;29727;47.606;19.130;2023-07-29T14:28:55;32.30;43.60
44063;DHT22;29727;47.606;19.130;2023-07-29T14:31:21;32.30;43.10
44063;DHT22;29727;47.606;19.130;2023-07-29T14:33:47;32.30;44.20
44063;DHT22;29727;47.606;19.130;2023-07-29T14:36:14;32.20;43.60
44063;DHT22;29727;47.606;19.130;2023-07-29T14:38:40;32.10;43.30
44063;DHT22;29727;47.606;19.130;2023-07-29T14:41:05;32.00;44.00
44063;DHT22;29727;47.606;19.130;2023-07-29T14:43:31;32.00;44.90
44063;DHT22;29727;47.606;19.130;2023-07-29T14:45:57;32.00;46.00
44063;DHT22;29727;47.606;19.130;2023-07-29T14:48:23;32.00;46.60
44063;DHT22;29727;47.606;19.130;2023-07-29T14:50:49;32.10;43.90
44063;DHT22;29727;47.606;19.130;2023-07-29T14:53:15;32.10;44.40
44063;DHT22;29727;47.606;19.130;2023-07-29T14:55:40;32.10;43.60
44063;DHT22;29727;47.606;19.130;2023-07-29T14:58:06;32.10;44.40
44063;DHT22;29727;47.606;19.130;2023-07-29T15:00:32;32.00;44.50
44063;DHT22;29727;47.606;19.130;2023-07-29T15:02:58;32.00;44.30
44063;DHT22;29727;47.606;19.130;2023-07-29T15:05:24;31.80;44.00
44063;DHT22;29727;47.606;19.130;2023-07-29T15:07:50;31.80;43.60
44063;DHT22;29727;47.606;19.130;2023-07-29T15:10:17;31.70;44.70
44063;DHT22;29727;47.606;19.130;2023-07-29T15:12:46;31.60;44.40
44063;DHT22;29727;47.606;19.130;2023-07-29T15:15:11;31.60;45.00
44063;DHT22;29727;47.606;19.130;2023-07-29T15:17:37;31.60;45.90
44063;DHT22;29727;47.606;19.130;2023-07-29T15:20:03;31.60;46.50
44063;DHT22;29727;47.606;19.130;2023-07-29T15:22:30;31.70;44.80
44063;DHT22;29727;47.606;19.130;2023-07-29T15:24:59;31.60;45.30